createdAt,value
2018-04-28T00:01:01.952Z,12.50
2018-04-28T00:03:29.496Z,12.40
2018-04-28T00:05:57.094Z,12.40
2018-04-28T00:08:42.090Z,12.70
2018-04-28T00:11:09.694Z,12.70
2018-04-28T00:13:37.240Z,12.80
2018-04-28T00:16:07.598Z,12.80
2018-04-28T00:18:41.058Z,13.00
2018-04-28T00:21:09.371Z,13.00
2018-04-28T00:23:43.724Z,12.80
2018-04-28T00:26:11.292Z,12.70
2018-04-28T00:28:43.644Z,12.80
2018-04-28T00:31:14.854Z,12.70
2018-04-28T00:33:44.111Z,12.70
2018-04-28T00:36:14.540Z,12.70
2018-04-28T00:38:48.964Z,12.70
2018-04-28T00:41:16.621Z,12.70
2018-04-28T00:43:44.168Z,12.80
2018-04-28T00:46:27.535Z,12.80
2018-04-28T00:48:56.744Z,12.70
2018-04-28T00:51:43.792Z,12.80
2018-04-28T00:54:16.175Z,12.80
2018-04-28T00:56:54.201Z,12.80
2018-04-28T00:59:23.448Z,12.80
2018-04-28T01:01:56.795Z,12.80
2018-04-28T01:04:29.150Z,12.80
2018-04-28T01:06:56.715Z,12.80
2018-04-28T01:09:24.259Z,12.80
2018-04-28T01:11:51.957Z,12.70
2018-04-28T01:14:21.178Z,12.70
2018-04-28T01:16:51.630Z,12.70
2018-04-28T01:19:27.742Z,12.60
2018-04-28T01:22:04.757Z,12.50
2018-04-28T01:27:35.014Z,12.50
2018-04-28T01:33:27.929Z,12.30
2018-04-28T01:36:03.069Z,12.30
2018-04-28T01:38:40.120Z,12.30
2018-04-28T01:41:19.405Z,12.30
2018-04-28T01:43:53.683Z,12.20
2018-04-28T01:46:21.975Z,12.40
2018-04-28T01:48:55.073Z,12.30
2018-04-28T01:51:41.085Z,12.30
2018-04-28T01:57:22.850Z,12.10
2018-04-28T02:00:01.381Z,11.90
2018-04-28T02:02:59.501Z,11.70
2018-04-28T02:05:40.720Z,11.60
2018-04-28T02:08:12.541Z,11.50
2018-04-28T02:10:51.941Z,11.30
2018-04-28T02:13:38.046Z,11.40
2018-04-28T02:16:12.416Z,11.40
2018-04-28T02:18:49.829Z,11.50
2018-04-28T02:24:56.095Z,11.70
2018-04-28T02:27:25.527Z,11.80
2018-04-28T02:30:08.860Z,11.70
2018-04-28T02:32:56.229Z,11.70
2018-04-28T02:35:43.455Z,11.80
2018-04-28T02:38:14.477Z,11.70
2018-04-28T02:40:42.855Z,11.70
2018-04-28T02:43:12.097Z,11.70
2018-04-28T02:45:50.427Z,11.70
2018-04-28T02:48:24.753Z,11.70
2018-04-28T02:50:53.959Z,11.70
2018-04-28T02:53:33.938Z,11.50
2018-04-28T02:56:08.502Z,11.50
2018-04-28T02:58:50.831Z,11.60
2018-04-28T03:01:30.861Z,11.40
2018-04-28T03:04:02.339Z,11.40
2018-04-28T03:06:54.289Z,11.50
2018-04-28T03:09:25.620Z,11.50
2018-04-28T03:12:09.792Z,11.50
2018-04-28T03:14:38.240Z,11.50
2018-04-28T03:17:08.395Z,11.40
2018-04-28T03:19:40.498Z,11.40
2018-04-28T03:22:08.025Z,11.40
2018-04-28T03:24:54.175Z,11.40
2018-04-28T03:27:30.283Z,11.30
2018-04-28T03:30:13.308Z,11.20
2018-04-28T03:32:42.664Z,11.30
2018-04-28T03:35:20.278Z,11.30
2018-04-28T03:40:49.420Z,10.90
2018-04-28T03:43:35.716Z,10.90
2018-04-28T03:49:09.711Z,10.60
2018-04-28T03:54:37.113Z,10.50
2018-04-28T03:57:25.310Z,10.40
2018-04-28T04:00:04.630Z,10.60
2018-04-28T04:02:43.999Z,10.60
2018-04-28T04:05:13.262Z,10.80
2018-04-28T04:07:40.863Z,11.00
2018-04-28T04:10:14.672Z,11.00
2018-04-28T04:12:51.083Z,11.00
2018-04-28T04:15:21.371Z,11.10
2018-04-28T04:18:10.627Z,11.10
2018-04-28T04:20:49.924Z,11.00
2018-04-28T04:23:42.974Z,11.00
2018-04-28T04:26:37.324Z,11.10
2018-04-28T04:29:31.230Z,11.20
2018-04-28T04:32:13.223Z,11.30
2018-04-28T04:34:52.510Z,11.50
2018-04-28T04:37:21.048Z,11.70
2018-04-28T04:39:52.385Z,12.10
2018-04-28T04:42:35.719Z,12.50
2018-04-28T04:45:07.632Z,12.80
2018-04-28T04:47:41.711Z,13.40
2018-04-28T04:50:18.079Z,13.40
2018-04-28T04:52:56.296Z,13.60
2018-04-28T04:58:37.178Z,14.40
2018-04-28T05:01:16.584Z,14.60
2018-04-28T05:04:03.607Z,14.60
2018-04-28T05:06:35.979Z,14.30
2018-04-28T05:09:19.602Z,13.90
2018-04-28T05:12:01.853Z,13.60
2018-04-28T05:14:41.175Z,13.10
2018-04-28T05:17:16.355Z,12.90
2018-04-28T05:19:55.713Z,12.90
2018-04-28T05:22:34.862Z,12.90
2018-04-28T05:25:08.135Z,12.90
2018-04-28T05:27:46.440Z,12.90
2018-04-28T05:30:26.530Z,12.90
2018-04-28T05:32:57.701Z,13.00
2018-04-28T05:35:31.175Z,13.20
2018-04-28T05:38:01.025Z,13.20
2018-04-28T05:40:40.506Z,13.20
2018-04-28T05:43:30.216Z,13.10
2018-04-28T05:46:05.610Z,13.10
2018-04-28T05:48:58.600Z,13.10
2018-04-28T05:51:43.802Z,13.00
2018-04-28T05:54:24.029Z,12.90
2018-04-28T05:59:58.625Z,12.90
2018-04-28T06:02:34.813Z,12.80
2018-04-28T06:05:23.960Z,12.80
2018-04-28T06:08:04.294Z,12.90
2018-04-28T06:10:59.205Z,13.00
2018-04-28T06:13:51.401Z,13.00
2018-04-28T06:16:43.389Z,13.00
2018-04-28T06:22:10.760Z,13.30
2018-04-28T06:24:38.290Z,13.30
2018-04-28T06:27:05.818Z,13.50
2018-04-28T06:29:33.337Z,13.60
2018-04-28T06:32:01.864Z,13.60
2018-04-28T06:34:29.685Z,13.80
2018-04-28T06:37:00.793Z,14.10
2018-04-28T06:39:29.223Z,14.70
2018-04-28T06:41:57.671Z,14.90
2018-04-28T06:44:25.243Z,15.00
2018-04-28T06:46:52.772Z,15.20
2018-04-28T06:49:20.295Z,15.10
2018-04-28T06:51:47.885Z,15.10
2018-04-28T06:54:15.509Z,15.00
2018-04-28T06:56:43.831Z,14.90
2018-04-28T06:59:11.373Z,14.90
2018-04-28T07:01:39.738Z,15.00
2018-04-28T07:04:08.101Z,14.60
2018-04-28T07:06:35.667Z,14.50
2018-04-28T07:09:04.095Z,14.50
2018-04-28T07:11:32.595Z,14.50
2018-04-28T07:14:00.212Z,14.60
2018-04-28T07:16:27.760Z,14.30
2018-04-28T07:18:55.355Z,14.10
2018-04-28T07:21:23.643Z,13.90
2018-04-28T07:23:51.226Z,13.90
2018-04-28T07:26:18.809Z,13.80
2018-04-28T07:28:46.420Z,13.90
2018-04-28T07:31:15.192Z,14.00
2018-04-28T07:33:43.375Z,14.00
2018-04-28T07:36:10.869Z,14.60
2018-04-28T07:38:40.362Z,14.90
2018-04-28T07:41:08.568Z,15.30
2018-04-28T07:43:36.128Z,16.00
2018-04-28T07:46:04.608Z,16.00
2018-04-28T07:48:32.912Z,16.10
2018-04-28T07:51:00.492Z,16.00
2018-04-28T07:53:28.023Z,16.40
2018-04-28T07:55:57.622Z,16.80
2018-04-28T07:58:25.145Z,17.30
2018-04-28T08:00:54.593Z,17.20
2018-04-28T08:03:23.622Z,16.80
2018-04-28T08:05:51.170Z,16.70
2018-04-28T08:08:19.675Z,17.10
2018-04-28T08:10:47.258Z,17.60
2018-04-28T08:13:14.847Z,17.40
2018-04-28T08:15:42.461Z,16.70
2018-04-28T08:18:10.031Z,16.90
2018-04-28T08:20:37.621Z,16.90
2018-04-28T08:23:05.234Z,17.10
2018-04-28T08:25:32.822Z,17.40
2018-04-28T08:28:00.466Z,17.70
2018-04-28T08:30:29.930Z,17.60
2018-04-28T08:33:00.473Z,17.30
2018-04-28T08:35:29.891Z,17.10
2018-04-28T08:37:57.441Z,17.20
2018-04-28T08:40:25.953Z,17.00
2018-04-28T08:42:53.473Z,17.20
2018-04-28T08:45:21.078Z,16.90
2018-04-28T08:47:48.588Z,17.30
2018-04-28T08:50:16.126Z,17.50
2018-04-28T08:52:44.438Z,16.90
2018-04-28T08:55:11.964Z,16.90
2018-04-28T08:57:40.358Z,17.30
2018-04-28T09:00:20.320Z,17.30
2018-04-28T09:02:48.794Z,17.10
2018-04-28T09:05:16.279Z,17.10
2018-04-28T09:07:43.774Z,17.30
2018-04-28T09:10:11.348Z,17.30
2018-04-28T09:12:39.021Z,17.50
2018-04-28T09:15:07.483Z,17.40
2018-04-28T09:17:35.087Z,17.50
2018-04-28T09:20:02.666Z,17.60
2018-04-28T09:22:31.129Z,18.00
2018-04-28T09:24:58.632Z,17.80
2018-04-28T09:27:26.175Z,17.60
2018-04-28T09:29:55.652Z,17.30
2018-04-28T09:32:23.168Z,17.40
2018-04-28T09:34:50.703Z,17.10
2018-04-28T09:37:18.215Z,17.50
2018-04-28T09:39:47.770Z,17.50
2018-04-28T09:42:33.955Z,17.30
2018-04-28T09:47:40.849Z,17.50
2018-04-28T09:50:08.376Z,17.90
2018-04-28T09:52:35.968Z,17.80
2018-04-28T09:55:03.594Z,17.90
2018-04-28T09:57:31.139Z,18.20
2018-04-28T10:00:10.443Z,18.30
2018-04-28T10:02:38.122Z,18.10
2018-04-28T10:05:05.554Z,18.40
2018-04-28T10:07:33.080Z,18.00
2018-04-28T10:10:00.593Z,18.00
2018-04-28T10:12:29.204Z,18.30
2018-04-28T10:14:56.712Z,18.10
2018-04-28T10:17:24.289Z,17.70
2018-04-28T10:19:51.963Z,18.00
2018-04-28T10:22:19.501Z,18.30
2018-04-28T10:24:47.003Z,18.90
2018-04-28T10:27:14.635Z,18.50
2018-04-28T10:29:42.158Z,18.30
2018-04-28T10:32:10.433Z,19.00
2018-04-28T10:34:38.748Z,19.00
2018-04-28T10:37:06.320Z,19.00
2018-04-28T10:39:33.931Z,19.30
2018-04-28T10:42:01.445Z,18.80
2018-04-28T10:44:28.935Z,19.10
2018-04-28T10:46:56.489Z,19.10
2018-04-28T10:49:24.016Z,19.20
2018-04-28T10:51:51.562Z,19.30
2018-04-28T10:54:19.832Z,19.70
2018-04-28T10:56:47.346Z,19.70
2018-04-28T10:59:14.864Z,19.80
2018-04-28T11:01:44.058Z,19.50
2018-04-28T11:04:11.647Z,19.50
2018-04-28T11:06:41.034Z,19.60
2018-04-28T11:09:08.536Z,19.60
2018-04-28T11:11:36.053Z,20.30
2018-04-28T11:14:03.640Z,20.40
2018-04-28T11:16:31.195Z,20.70
2018-04-28T11:18:59.765Z,20.90
2018-04-28T11:21:27.333Z,20.90
2018-04-28T11:23:54.879Z,21.20
2018-04-28T11:26:23.306Z,20.90
2018-04-28T11:28:51.627Z,20.50
2018-04-28T11:31:19.209Z,20.50
2018-04-28T11:33:46.746Z,20.60
2018-04-28T11:36:14.284Z,20.50
2018-04-28T11:38:42.562Z,20.60
2018-04-28T11:41:10.871Z,20.50
2018-04-28T11:43:38.700Z,20.50
2018-04-28T11:46:06.220Z,20.30
2018-04-28T11:48:33.749Z,20.60
2018-04-28T11:51:01.278Z,20.90
2018-04-28T11:53:29.818Z,21.00
2018-04-28T11:55:57.331Z,20.90
2018-04-28T11:58:24.884Z,20.70
2018-04-28T12:00:52.419Z,21.20
2018-04-28T12:03:19.939Z,21.40
2018-04-28T12:05:47.492Z,21.60
2018-04-28T12:08:15.913Z,21.40
2018-04-28T12:10:43.444Z,21.20
2018-04-28T12:13:11.904Z,21.00
2018-04-28T12:15:39.434Z,20.60
2018-04-28T12:18:06.985Z,20.90
2018-04-28T12:20:35.304Z,21.20
2018-04-28T12:23:02.834Z,21.20
2018-04-28T12:25:32.069Z,21.70
2018-04-28T12:27:59.617Z,21.70
2018-04-28T12:30:27.163Z,21.80
2018-04-28T12:32:55.440Z,21.60
2018-04-28T12:35:24.683Z,21.30
2018-04-28T12:37:53.171Z,21.30
2018-04-28T12:40:21.695Z,21.60
2018-04-28T12:42:49.198Z,22.00
2018-04-28T12:45:16.750Z,22.10
2018-04-28T12:47:46.038Z,21.00
2018-04-28T12:50:14.556Z,21.00
2018-04-28T12:52:42.078Z,21.00
2018-04-28T12:55:09.668Z,21.10
2018-04-28T12:57:37.344Z,21.10
2018-04-28T13:00:04.852Z,21.00
2018-04-28T13:02:32.364Z,21.20
2018-04-28T13:04:59.919Z,21.30
2018-04-28T13:07:27.487Z,21.10
2018-04-28T13:09:56.677Z,21.20
2018-04-28T13:12:24.953Z,21.50
2018-04-28T13:14:52.496Z,21.50
2018-04-28T13:17:20.085Z,20.90
2018-04-28T13:19:47.619Z,21.00
2018-04-28T13:22:15.148Z,21.00
2018-04-28T13:24:42.680Z,21.20
2018-04-28T13:27:10.218Z,21.30
2018-04-28T13:29:37.757Z,21.50
2018-04-28T13:32:06.081Z,21.80
2018-04-28T13:34:34.507Z,21.80
2018-04-28T13:37:02.016Z,21.60
2018-04-28T13:39:29.723Z,21.30
2018-04-28T13:41:57.227Z,21.20
2018-04-28T13:44:24.750Z,21.50
2018-04-28T13:46:52.272Z,21.60
2018-04-28T13:49:19.909Z,21.80
2018-04-28T13:51:47.457Z,21.90
2018-04-28T13:54:15.924Z,21.90
2018-04-28T13:56:44.217Z,22.00
2018-04-28T13:59:11.849Z,22.00
2018-04-28T14:01:39.371Z,22.30
2018-04-28T14:04:06.926Z,21.90
2018-04-28T14:06:35.427Z,21.80
2018-04-28T14:09:02.945Z,22.00
2018-04-28T14:11:32.205Z,22.20
2018-04-28T14:13:59.793Z,22.20
2018-04-28T14:16:29.050Z,21.80
2018-04-28T14:18:56.552Z,21.80
2018-04-28T14:21:24.113Z,21.60
2018-04-28T14:23:51.665Z,21.50
2018-04-28T14:26:19.292Z,21.70
2018-04-28T14:28:46.870Z,21.80
2018-04-28T14:31:14.387Z,21.90
2018-04-28T14:33:41.899Z,21.70
2018-04-28T14:36:09.427Z,21.90
2018-04-28T14:38:37.705Z,22.20
2018-04-28T14:41:05.456Z,22.10
2018-04-28T14:43:32.960Z,22.00
2018-04-28T14:46:00.466Z,21.70
2018-04-28T14:48:29.966Z,21.90
2018-04-28T14:50:57.491Z,21.90
2018-04-28T14:53:25.030Z,21.80
2018-04-28T14:55:52.552Z,21.70
2018-04-28T14:58:20.737Z,21.70
2018-04-28T15:00:50.288Z,21.80
2018-04-28T15:03:17.849Z,21.60
2018-04-28T15:05:45.480Z,21.60
2018-04-28T15:08:13.009Z,21.90
2018-04-28T15:10:40.526Z,21.70
2018-04-28T15:13:09.951Z,21.70
2018-04-28T15:15:37.465Z,21.90
2018-04-28T15:18:05.067Z,22.20
2018-04-28T15:20:33.565Z,22.30
2018-04-28T15:23:01.855Z,21.90
2018-04-28T15:25:31.055Z,22.00
2018-04-28T15:27:59.330Z,21.80
2018-04-28T15:30:26.943Z,21.80
2018-04-28T15:32:54.500Z,21.90
2018-04-28T15:35:22.023Z,22.00
2018-04-28T15:37:49.563Z,21.80
2018-04-28T15:40:17.111Z,21.90
2018-04-28T15:42:44.702Z,22.10
2018-04-28T15:45:12.234Z,22.10
2018-04-28T15:47:39.821Z,22.00
2018-04-28T15:50:07.383Z,21.80
2018-04-28T15:52:34.890Z,22.00
2018-04-28T15:55:03.192Z,22.00
2018-04-28T15:57:30.709Z,22.00
2018-04-28T15:59:58.227Z,22.00
2018-04-28T16:02:25.887Z,21.70
2018-04-28T16:04:53.397Z,21.90
2018-04-28T16:07:20.943Z,21.80
2018-04-28T16:09:48.554Z,22.00
2018-04-28T16:12:16.820Z,22.20
2018-04-28T16:14:44.555Z,22.20
2018-04-28T16:17:12.755Z,22.10
2018-04-28T16:19:41.183Z,22.10
2018-04-28T16:22:08.854Z,22.10
2018-04-28T16:24:36.405Z,21.90
2018-04-28T16:27:04.687Z,22.10
2018-04-28T16:29:32.950Z,21.80
2018-04-28T16:32:01.431Z,21.80
2018-04-28T16:34:28.983Z,21.80
2018-04-28T16:36:56.493Z,21.70
2018-04-28T16:39:24.035Z,21.30
2018-04-28T16:41:52.319Z,21.50
2018-04-28T16:44:20.778Z,21.50
2018-04-28T16:46:48.357Z,21.50
2018-04-28T16:49:16.868Z,21.70
2018-04-28T16:51:45.332Z,21.80
2018-04-28T16:54:13.009Z,21.90
2018-04-28T16:56:41.463Z,22.10
2018-04-28T16:59:09.056Z,22.10
2018-04-28T17:01:36.491Z,22.20
2018-04-28T17:04:04.056Z,22.20
2018-04-28T17:06:31.629Z,22.10
2018-04-28T17:08:59.063Z,22.00
2018-04-28T17:11:26.586Z,22.00
2018-04-28T17:13:54.179Z,21.90
2018-04-28T17:16:21.793Z,21.60
2018-04-28T17:18:49.339Z,21.50
2018-04-28T17:21:16.919Z,21.50
2018-04-28T17:23:44.423Z,21.30
2018-04-28T17:26:11.923Z,21.10
2018-04-28T17:28:40.417Z,21.00
2018-04-28T17:31:18.408Z,20.90
2018-04-28T17:34:07.582Z,20.70
2018-04-28T17:36:35.874Z,20.60
2018-04-28T17:39:04.369Z,20.60
2018-04-28T17:41:32.649Z,20.20
2018-04-28T17:44:01.717Z,20.10
2018-04-28T17:46:29.307Z,20.10
2018-04-28T17:48:57.785Z,20.00
2018-04-28T17:51:25.404Z,19.90
2018-04-28T17:53:52.896Z,19.70
2018-04-28T17:56:20.432Z,19.60
2018-04-28T17:58:48.013Z,19.50
2018-04-28T18:01:15.600Z,19.40
2018-04-28T18:03:43.411Z,19.30
2018-04-28T18:06:11.715Z,19.20
2018-04-28T18:08:39.223Z,19.20
2018-04-28T18:11:07.659Z,19.00
2018-04-28T18:13:36.180Z,18.80
2018-04-28T18:16:03.780Z,18.70
2018-04-28T18:18:32.229Z,18.60
2018-04-28T18:20:59.743Z,18.40
2018-04-28T18:23:27.255Z,18.30
2018-04-28T18:25:54.817Z,18.10
2018-04-28T18:28:22.327Z,18.00
2018-04-28T18:30:49.847Z,18.00
2018-04-28T18:33:17.350Z,18.10
2018-04-28T18:35:46.572Z,17.70
2018-04-28T18:38:14.206Z,17.70
2018-04-28T18:40:41.785Z,17.60
2018-04-28T18:43:10.287Z,17.50
2018-04-28T18:45:37.843Z,17.40
2018-04-28T18:48:05.361Z,17.40
2018-04-28T18:53:13.848Z,17.10
2018-04-28T18:55:41.340Z,17.10
2018-04-28T18:58:08.904Z,17.00
2018-04-28T19:00:37.249Z,16.70
2018-04-28T19:03:05.539Z,16.60
2018-04-28T19:05:34.003Z,16.60
2018-04-28T19:08:02.307Z,16.40
2018-04-28T19:10:30.793Z,16.40
2018-04-28T19:12:58.430Z,16.40
2018-04-28T19:15:26.712Z,16.40
2018-04-28T19:17:54.252Z,16.40
2018-04-28T19:20:22.747Z,16.40
2018-04-28T19:22:50.371Z,16.30
2018-04-28T19:28:23.746Z,16.00
2018-04-28T19:30:51.311Z,15.90
2018-04-28T19:33:18.880Z,16.00
2018-04-28T19:35:46.469Z,16.00
2018-04-28T19:38:14.083Z,15.90
2018-04-28T19:40:41.687Z,15.90
2018-04-28T19:43:09.299Z,15.70
2018-04-28T19:45:36.863Z,15.70
2018-04-28T19:48:04.407Z,15.70
2018-04-28T19:50:32.925Z,15.70
2018-04-28T19:53:00.491Z,15.70
2018-04-28T19:55:28.069Z,15.60
2018-04-28T19:57:55.578Z,15.60
2018-04-28T20:00:27.718Z,15.40
2018-04-28T20:02:56.208Z,15.40
2018-04-28T20:05:23.793Z,15.40
2018-04-28T20:07:51.375Z,15.60
2018-04-28T20:10:18.934Z,15.60
2018-04-28T20:12:46.547Z,15.70
2018-04-28T20:15:14.102Z,15.90
2018-04-28T20:17:44.138Z,15.90
2018-04-28T20:20:11.667Z,16.10
2018-04-28T20:22:50.892Z,16.00
2018-04-28T20:25:24.458Z,16.10
2018-04-28T20:27:51.965Z,16.10
2018-04-28T20:30:19.560Z,16.10
2018-04-28T20:32:47.794Z,16.10
2018-04-28T20:35:16.245Z,16.20
2018-04-28T20:37:43.781Z,16.20
2018-04-28T20:40:13.145Z,16.00
2018-04-28T20:42:40.856Z,16.00
2018-04-28T20:45:08.464Z,16.00
2018-04-28T20:47:36.042Z,16.00
2018-04-28T20:50:04.545Z,16.10
2018-04-28T20:52:35.042Z,16.20
2018-04-28T20:58:09.026Z,16.20
2018-04-28T21:00:37.324Z,16.20
2018-04-28T21:03:04.841Z,16.10
2018-04-28T21:05:32.469Z,16.00
2018-04-28T21:08:00.006Z,15.90
2018-04-28T21:10:28.297Z,15.80
2018-04-28T21:12:55.889Z,15.80
2018-04-28T21:15:23.541Z,15.70
2018-04-28T21:17:51.092Z,15.50
2018-04-28T21:20:18.695Z,15.50
2018-04-28T21:22:46.276Z,15.50
2018-04-28T21:25:13.869Z,15.40
2018-04-28T21:27:41.422Z,15.30
2018-04-28T21:30:09.057Z,15.40
2018-04-28T21:32:36.595Z,15.30
2018-04-28T21:35:04.139Z,15.40
2018-04-28T21:37:32.518Z,15.80
2018-04-28T21:40:01.028Z,15.80
2018-04-28T21:42:29.468Z,15.80
2018-04-28T21:44:57.032Z,15.70
2018-04-28T21:47:24.584Z,15.60
2018-04-28T21:49:53.086Z,15.60
2018-04-28T21:52:20.648Z,15.40
2018-04-28T21:54:50.093Z,15.20
2018-04-28T21:57:17.613Z,15.20
2018-04-28T21:59:46.107Z,15.30
2018-04-28T22:02:13.636Z,15.30
2018-04-28T22:04:41.146Z,15.00
2018-04-28T22:07:08.686Z,15.10
2018-04-28T22:09:36.314Z,15.00
2018-04-28T22:12:03.833Z,15.10
2018-04-28T22:14:31.403Z,15.00
2018-04-28T22:16:59.015Z,15.00
2018-04-28T22:19:27.451Z,14.90
2018-04-28T22:21:54.993Z,15.00
2018-04-28T22:24:22.505Z,15.00
2018-04-28T22:26:50.104Z,14.90
2018-04-28T22:29:17.637Z,15.10
2018-04-28T22:31:47.110Z,15.00
2018-04-28T22:34:14.699Z,15.00
2018-04-28T22:36:42.306Z,15.00
2018-04-28T22:39:10.421Z,15.10
2018-04-28T22:41:37.929Z,15.20
2018-04-28T22:44:05.479Z,15.20
2018-04-28T22:46:33.070Z,15.20
2018-04-28T22:49:00.589Z,15.20
2018-04-28T22:51:28.710Z,15.00
2018-04-28T22:53:56.246Z,14.90
2018-04-28T22:56:23.756Z,15.10
2018-04-28T22:58:51.439Z,15.10
2018-04-28T23:01:18.962Z,15.10
2018-04-28T23:03:46.461Z,15.30
2018-04-28T23:06:14.046Z,15.20
2018-04-28T23:08:41.596Z,15.00
2018-04-28T23:11:09.098Z,14.70
2018-04-28T23:13:37.390Z,14.50
2018-04-28T23:16:05.414Z,14.60
2018-04-28T23:18:32.921Z,14.50
2018-04-28T23:21:01.246Z,14.90
2018-04-28T23:23:28.759Z,14.90
2018-04-28T23:25:57.049Z,15.00
2018-04-28T23:28:24.620Z,14.90
2018-04-28T23:30:52.140Z,14.80
2018-04-28T23:33:21.685Z,14.70
2018-04-28T23:35:49.332Z,14.50
2018-04-28T23:38:16.928Z,14.30
2018-04-28T23:40:44.417Z,14.20
2018-04-28T23:43:13.026Z,14.10
2018-04-28T23:45:40.498Z,14.10
2018-04-28T23:51:18.967Z,14.00
2018-04-28T23:53:46.518Z,13.90
2018-04-28T23:56:14.135Z,13.90
2018-04-28T23:58:43.671Z,14.10
